sensor_id;sensor_type;location;lat;lon;timestamp;P1;durP1;ratioP1;P2;durP2;ratioP2
62121;SDS011;48108;47.532;19.084;2022-09-12T03:56:32;5.90;;;4.43;;
62121;SDS011;48108;47.532;19.084;2022-09-12T03:59:36;5.93;;;4.40;;
62121;SDS011;48108;47.532;19.084;2022-09-12T04:02:39;6.40;;;4.30;;
62121;SDS011;48108;47.532;19.084;2022-09-12T04:05:41;6.32;;;3.92;;
62121;SDS011;48108;47.532;19.084;2022-09-12T04:08:46;6.40;;;4.70;;
62121;SDS011;48108;47.532;19.084;2022-09-12T04:11:51;5.78;;;4.20;;
62121;SDS011;48108;47.532;19.084;2022-09-12T04:14:54;6.93;;;4.72;;
62121;SDS011;48108;47.532;19.084;2022-09-12T04:17:57;6.90;;;4.25;;
62121;SDS011;48108;47.532;19.084;2022-09-12T04:21:07;5.25;;;4.25;;
62121;SDS011;48108;47.532;19.084;2022-09-12T04:24:12;5.22;;;4.15;;
62121;SDS011;48108;47.532;19.084;2022-09-12T04:27:15;6.70;;;4.22;;
62121;SDS011;48108;47.532;19.084;2022-09-12T04:30:17;6.72;;;4.68;;
62121;SDS011;48108;47.532;19.084;2022-09-12T04:33:20;4.53;;;3.90;;
62121;SDS011;48108;47.532;19.084;2022-09-12T04:36:23;6.00;;;4.20;;
62121;SDS011;48108;47.532;19.084;2022-09-12T04:39:27;4.87;;;4.12;;
62121;SDS011;48108;47.532;19.084;2022-09-12T04:42:30;6.05;;;4.03;;
62121;SDS011;48108;47.532;19.084;2022-09-12T04:45:32;5.80;;;4.78;;
62121;SDS011;48108;47.532;19.084;2022-09-12T04:48:35;5.62;;;3.83;;
62121;SDS011;48108;47.532;19.084;2022-09-12T04:51:39;4.62;;;4.00;;
62121;SDS011;48108;47.532;19.084;2022-09-12T04:54:43;7.12;;;5.03;;
62121;SDS011;48108;47.532;19.084;2022-09-12T04:57:46;9.13;;;4.30;;
62121;SDS011;48108;47.532;19.084;2022-09-12T05:00:49;7.53;;;4.47;;
62121;SDS011;48108;47.532;19.084;2022-09-12T05:03:51;5.72;;;4.07;;
62121;SDS011;48108;47.532;19.084;2022-09-12T05:06:55;6.25;;;4.12;;
62121;SDS011;48108;47.532;19.084;2022-09-12T05:09:57;6.70;;;4.18;;
62121;SDS011;48108;47.532;19.084;2022-09-12T05:13:00;7.10;;;4.12;;
62121;SDS011;48108;47.532;19.084;2022-09-12T05:16:03;6.43;;;4.43;;
62121;SDS011;48108;47.532;19.084;2022-09-12T05:19:08;6.97;;;4.03;;
62121;SDS011;48108;47.532;19.084;2022-09-12T05:22:12;5.03;;;4.12;;
62121;SDS011;48108;47.532;19.084;2022-09-12T05:25:15;7.15;;;4.12;;
62121;SDS011;48108;47.532;19.084;2022-09-12T05:28:18;5.45;;;4.25;;
62121;SDS011;48108;47.532;19.084;2022-09-12T05:31:23;5.37;;;3.90;;
62121;SDS011;48108;47.532;19.084;2022-09-12T05:34:27;5.65;;;3.80;;
62121;SDS011;48108;47.532;19.084;2022-09-12T05:37:30;5.12;;;3.78;;
62121;SDS011;48108;47.532;19.084;2022-09-12T05:40:32;6.12;;;4.00;;
62121;SDS011;48108;47.532;19.084;2022-09-12T05:43:36;7.32;;;3.80;;
62121;SDS011;48108;47.532;19.084;2022-09-12T05:46:40;6.70;;;4.20;;
62121;SDS011;48108;47.532;19.084;2022-09-12T05:49:44;5.57;;;4.20;;
62121;SDS011;48108;47.532;19.084;2022-09-12T05:52:49;8.35;;;4.93;;
62121;SDS011;48108;47.532;19.084;2022-09-12T05:56:00;7.80;;;4.70;;
62121;SDS011;48108;47.532;19.084;2022-09-12T05:59:16;7.15;;;4.18;;
62121;SDS011;48108;47.532;19.084;2022-09-12T06:02:20;6.32;;;4.30;;
62121;SDS011;48108;47.532;19.084;2022-09-12T06:05:23;5.90;;;4.82;;
62121;SDS011;48108;47.532;19.084;2022-09-12T06:08:26;7.87;;;4.68;;
62121;SDS011;48108;47.532;19.084;2022-09-12T06:11:30;4.50;;;4.00;;
62121;SDS011;48108;47.532;19.084;2022-09-12T06:14:34;8.68;;;5.07;;
62121;SDS011;48108;47.532;19.084;2022-09-12T06:17:37;7.15;;;4.75;;
62121;SDS011;48108;47.532;19.084;2022-09-12T06:20:40;6.53;;;4.10;;
62121;SDS011;48108;47.532;19.084;2022-09-12T06:23:43;7.60;;;5.10;;
62121;SDS011;48108;47.532;19.084;2022-09-12T06:26:47;9.23;;;5.00;;
62121;SDS011;48108;47.532;19.084;2022-09-12T06:29:51;8.43;;;4.90;;
62121;SDS011;48108;47.532;19.084;2022-09-12T06:32:54;7.95;;;4.70;;
62121;SDS011;48108;47.532;19.084;2022-09-12T06:36:08;7.12;;;5.10;;
62121;SDS011;48108;47.532;19.084;2022-09-12T06:39:21;5.03;;;4.40;;
62121;SDS011;48108;47.532;19.084;2022-09-12T06:42:25;8.80;;;4.85;;
62121;SDS011;48108;47.532;19.084;2022-09-12T06:45:30;6.95;;;4.45;;
62121;SDS011;48108;47.532;19.084;2022-09-12T06:48:34;5.62;;;4.40;;
62121;SDS011;48108;47.532;19.084;2022-09-12T06:51:43;7.62;;;5.00;;
62121;SDS011;48108;47.532;19.084;2022-09-12T06:54:46;7.18;;;4.90;;
62121;SDS011;48108;47.532;19.084;2022-09-12T06:57:48;7.15;;;4.45;;
62121;SDS011;48108;47.532;19.084;2022-09-12T07:00:52;5.95;;;4.72;;
62121;SDS011;48108;47.532;19.084;2022-09-12T07:04:02;5.62;;;4.35;;
62121;SDS011;48108;47.532;19.084;2022-09-12T07:07:05;9.35;;;4.90;;
62121;SDS011;48108;47.532;19.084;2022-09-12T07:10:08;8.57;;;4.75;;
62121;SDS011;48108;47.532;19.084;2022-09-12T07:13:13;7.07;;;4.60;;
62121;SDS011;48108;47.532;19.084;2022-09-12T07:16:16;7.60;;;4.95;;
62121;SDS011;48108;47.532;19.084;2022-09-12T07:19:21;7.00;;;4.57;;
62121;SDS011;48108;47.532;19.084;2022-09-12T07:22:24;10.27;;;4.70;;
62121;SDS011;48108;47.532;19.084;2022-09-12T07:25:27;5.78;;;4.53;;
62121;SDS011;48108;47.532;19.084;2022-09-12T07:28:30;7.22;;;4.40;;
62121;SDS011;48108;47.532;19.084;2022-09-12T07:31:35;5.55;;;4.20;;
62121;SDS011;48108;47.532;19.084;2022-09-12T07:34:37;6.25;;;4.25;;
62121;SDS011;48108;47.532;19.084;2022-09-12T07:37:40;5.25;;;3.70;;
62121;SDS011;48108;47.532;19.084;2022-09-12T07:40:45;5.18;;;4.12;;
62121;SDS011;48108;47.532;19.084;2022-09-12T07:43:50;6.03;;;4.53;;
62121;SDS011;48108;47.532;19.084;2022-09-12T07:46:54;5.95;;;4.00;;
62121;SDS011;48108;47.532;19.084;2022-09-12T07:49:57;5.53;;;4.03;;
62121;SDS011;48108;47.532;19.084;2022-09-12T07:53:00;6.93;;;4.37;;
62121;SDS011;48108;47.532;19.084;2022-09-12T07:56:05;5.93;;;3.85;;
62121;SDS011;48108;47.532;19.084;2022-09-12T07:59:08;6.05;;;3.85;;
62121;SDS011;48108;47.532;19.084;2022-09-12T08:02:11;3.90;;;3.47;;
62121;SDS011;48108;47.532;19.084;2022-09-12T08:05:19;4.53;;;3.53;;
62121;SDS011;48108;47.532;19.084;2022-09-12T08:08:22;4.37;;;3.47;;
62121;SDS011;48108;47.532;19.084;2022-09-12T08:11:25;4.55;;;3.65;;
62121;SDS011;48108;47.532;19.084;2022-09-12T08:14:29;4.05;;;3.42;;
62121;SDS011;48108;47.532;19.084;2022-09-12T08:17:32;7.20;;;3.80;;
62121;SDS011;48108;47.532;19.084;2022-09-12T08:20:35;4.28;;;3.60;;
62121;SDS011;48108;47.532;19.084;2022-09-12T08:23:38;7.22;;;3.70;;
62121;SDS011;48108;47.532;19.084;2022-09-12T08:26:41;3.85;;;3.45;;
62121;SDS011;48108;47.532;19.084;2022-09-12T08:29:44;4.47;;;3.65;;
62121;SDS011;48108;47.532;19.084;2022-09-12T08:32:47;4.60;;;3.33;;
62121;SDS011;48108;47.532;19.084;2022-09-12T08:35:50;3.75;;;3.35;;
62121;SDS011;48108;47.532;19.084;2022-09-12T08:38:54;4.32;;;3.45;;
62121;SDS011;48108;47.532;19.084;2022-09-12T08:42:03;5.13;;;3.10;;
62121;SDS011;48108;47.532;19.084;2022-09-12T08:45:16;3.60;;;3.10;;
62121;SDS011;48108;47.532;19.084;2022-09-12T08:48:23;3.37;;;2.80;;
62121;SDS011;48108;47.532;19.084;2022-09-12T08:51:26;3.87;;;3.00;;
62121;SDS011;48108;47.532;19.084;2022-09-12T08:54:30;3.75;;;3.22;;
62121;SDS011;48108;47.532;19.084;2022-09-12T08:57:34;2.62;;;2.42;;
62121;SDS011;48108;47.532;19.084;2022-09-12T09:00:42;2.55;;;2.35;;
62121;SDS011;48108;47.532;19.084;2022-09-12T09:11:40;5.47;;;2.85;;
62121;SDS011;48108;47.532;19.084;2022-09-12T09:21:32;2.62;;;2.42;;
62121;SDS011;48108;47.532;19.084;2022-09-12T09:24:47;3.20;;;2.67;;
62121;SDS011;48108;47.532;19.084;2022-09-12T09:27:56;2.90;;;2.05;;
62121;SDS011;48108;47.532;19.084;2022-09-12T09:31:10;5.20;;;2.70;;
62121;SDS011;48108;47.532;19.084;2022-09-12T09:34:20;2.83;;;2.00;;
62121;SDS011;48108;47.532;19.084;2022-09-12T09:43:59;1.85;;;1.75;;
62121;SDS011;48108;47.532;19.084;2022-09-12T09:47:02;3.05;;;2.15;;
62121;SDS011;48108;47.532;19.084;2022-09-12T09:50:08;3.20;;;2.05;;
62121;SDS011;48108;47.532;19.084;2022-09-12T09:56:39;2.10;;;1.58;;
62121;SDS011;48108;47.532;19.084;2022-09-12T09:59:43;2.37;;;1.70;;
62121;SDS011;48108;47.532;19.084;2022-09-12T10:03:05;2.40;;;2.20;;
62121;SDS011;48108;47.532;19.084;2022-09-12T10:06:33;2.55;;;1.87;;
62121;SDS011;48108;47.532;19.084;2022-09-12T10:09:39;3.05;;;1.98;;
62121;SDS011;48108;47.532;19.084;2022-09-12T10:12:43;2.10;;;1.50;;
62121;SDS011;48108;47.532;19.084;2022-09-12T10:15:59;1.92;;;1.62;;
62121;SDS011;48108;47.532;19.084;2022-09-12T10:19:04;2.20;;;1.80;;
62121;SDS011;48108;47.532;19.084;2022-09-12T10:22:12;2.45;;;1.87;;
62121;SDS011;48108;47.532;19.084;2022-09-12T10:25:19;1.95;;;1.80;;
62121;SDS011;48108;47.532;19.084;2022-09-12T10:31:56;1.95;;;1.80;;
62121;SDS011;48108;47.532;19.084;2022-09-12T10:35:03;1.60;;;1.50;;
62121;SDS011;48108;47.532;19.084;2022-09-12T10:38:13;1.80;;;1.70;;
62121;SDS011;48108;47.532;19.084;2022-09-12T10:41:22;3.40;;;1.92;;
62121;SDS011;48108;47.532;19.084;2022-09-12T10:44:29;2.15;;;1.98;;
62121;SDS011;48108;47.532;19.084;2022-09-12T10:47:33;2.72;;;1.95;;
62121;SDS011;48108;47.532;19.084;2022-09-12T10:50:41;2.22;;;2.05;;
62121;SDS011;48108;47.532;19.084;2022-09-12T10:53:44;1.98;;;1.77;;
62121;SDS011;48108;47.532;19.084;2022-09-12T10:56:54;2.30;;;2.10;;
62121;SDS011;48108;47.532;19.084;2022-09-12T11:00:09;3.62;;;2.40;;
62121;SDS011;48108;47.532;19.084;2022-09-12T11:03:22;1.98;;;1.87;;
62121;SDS011;48108;47.532;19.084;2022-09-12T11:06:57;1.90;;;1.48;;
62121;SDS011;48108;47.532;19.084;2022-09-12T11:20:03;2.37;;;2.05;;
62121;SDS011;48108;47.532;19.084;2022-09-12T11:36:10;1.60;;;1.20;;
62121;SDS011;48108;47.532;19.084;2022-09-12T11:39:23;4.65;;;1.67;;
62121;SDS011;48108;47.532;19.084;2022-09-12T11:42:34;1.67;;;1.30;;
62121;SDS011;48108;47.532;19.084;2022-09-12T11:45:40;1.67;;;1.33;;
62121;SDS011;48108;47.532;19.084;2022-09-12T11:55:30;2.90;;;1.87;;
62121;SDS011;48108;47.532;19.084;2022-09-12T11:58:41;1.55;;;1.42;;
62121;SDS011;48108;47.532;19.084;2022-09-12T12:01:48;1.52;;;1.42;;
62121;SDS011;48108;47.532;19.084;2022-09-12T12:08:22;2.42;;;1.87;;
62121;SDS011;48108;47.532;19.084;2022-09-12T12:11:29;2.20;;;2.00;;
62121;SDS011;48108;47.532;19.084;2022-09-12T12:14:52;1.62;;;1.52;;
62121;SDS011;48108;47.532;19.084;2022-09-12T12:21:20;3.22;;;1.65;;
62121;SDS011;48108;47.532;19.084;2022-09-12T12:24:29;2.12;;;2.00;;
62121;SDS011;48108;47.532;19.084;2022-09-12T12:34:00;2.10;;;1.80;;
62121;SDS011;48108;47.532;19.084;2022-09-12T12:40:23;2.37;;;1.70;;
62121;SDS011;48108;47.532;19.084;2022-09-12T12:43:30;2.05;;;1.83;;
62121;SDS011;48108;47.532;19.084;2022-09-12T12:46:33;1.62;;;1.52;;
62121;SDS011;48108;47.532;19.084;2022-09-12T12:49:39;1.95;;;1.85;;
62121;SDS011;48108;47.532;19.084;2022-09-12T12:52:49;3.60;;;1.80;;
62121;SDS011;48108;47.532;19.084;2022-09-12T12:55:56;2.25;;;1.08;;
62121;SDS011;48108;47.532;19.084;2022-09-12T12:59:00;1.75;;;1.33;;
62121;SDS011;48108;47.532;19.084;2022-09-12T13:02:14;1.67;;;1.12;;
62121;SDS011;48108;47.532;19.084;2022-09-12T13:05:23;1.58;;;1.37;;
62121;SDS011;48108;47.532;19.084;2022-09-12T13:08:29;4.10;;;1.55;;
62121;SDS011;48108;47.532;19.084;2022-09-12T13:11:35;1.37;;;1.27;;
62121;SDS011;48108;47.532;19.084;2022-09-12T13:14:48;1.33;;;1.23;;
62121;SDS011;48108;47.532;19.084;2022-09-12T13:17:52;1.02;;;1.02;;
62121;SDS011;48108;47.532;19.084;2022-09-12T13:21:09;2.28;;;1.37;;
62121;SDS011;48108;47.532;19.084;2022-09-12T13:24:21;2.80;;;1.02;;
62121;SDS011;48108;47.532;19.084;2022-09-12T13:27:25;1.35;;;1.25;;
62121;SDS011;48108;47.532;19.084;2022-09-12T13:30:29;1.12;;;1.10;;
62121;SDS011;48108;47.532;19.084;2022-09-12T13:40:21;2.08;;;1.10;;
62121;SDS011;48108;47.532;19.084;2022-09-12T13:43:46;1.55;;;1.40;;
62121;SDS011;48108;47.532;19.084;2022-09-12T13:46:50;1.58;;;1.35;;
62121;SDS011;48108;47.532;19.084;2022-09-12T13:49:54;1.55;;;1.10;;
62121;SDS011;48108;47.532;19.084;2022-09-12T13:52:59;1.80;;;1.02;;
62121;SDS011;48108;47.532;19.084;2022-09-12T13:56:05;1.23;;;1.00;;
62121;SDS011;48108;47.532;19.084;2022-09-12T13:59:09;1.15;;;0.90;;
62121;SDS011;48108;47.532;19.084;2022-09-12T14:02:16;2.53;;;1.20;;
62121;SDS011;48108;47.532;19.084;2022-09-12T14:05:23;0.98;;;0.90;;
62121;SDS011;48108;47.532;19.084;2022-09-12T14:08:27;3.85;;;0.60;;
62121;SDS011;48108;47.532;19.084;2022-09-12T14:11:31;1.62;;;0.62;;
62121;SDS011;48108;47.532;19.084;2022-09-12T14:14:35;1.12;;;0.82;;
62121;SDS011;48108;47.532;19.084;2022-09-12T14:17:47;1.15;;;0.82;;
62121;SDS011;48108;47.532;19.084;2022-09-12T14:20:53;1.45;;;0.80;;
62121;SDS011;48108;47.532;19.084;2022-09-12T14:23:58;0.88;;;0.60;;
62121;SDS011;48108;47.532;19.084;2022-09-12T14:27:02;1.15;;;0.90;;
62121;SDS011;48108;47.532;19.084;2022-09-12T14:30:07;2.45;;;1.12;;
62121;SDS011;48108;47.532;19.084;2022-09-12T14:33:47;1.85;;;1.10;;
62121;SDS011;48108;47.532;19.084;2022-09-12T14:36:52;0.70;;;0.70;;
62121;SDS011;48108;47.532;19.084;2022-09-12T14:39:57;0.80;;;0.80;;
62121;SDS011;48108;47.532;19.084;2022-09-12T14:43:00;2.28;;;1.00;;
62121;SDS011;48108;47.532;19.084;2022-09-12T14:46:23;1.02;;;1.00;;
62121;SDS011;48108;47.532;19.084;2022-09-12T14:49:33;1.40;;;1.30;;
62121;SDS011;48108;47.532;19.084;2022-09-12T14:52:37;2.95;;;0.95;;
62121;SDS011;48108;47.532;19.084;2022-09-12T14:55:43;0.90;;;0.90;;
62121;SDS011;48108;47.532;19.084;2022-09-12T14:58:48;2.47;;;1.10;;
62121;SDS011;48108;47.532;19.084;2022-09-12T15:05:23;0.98;;;0.88;;
62121;SDS011;48108;47.532;19.084;2022-09-12T15:08:28;1.65;;;0.75;;
62121;SDS011;48108;47.532;19.084;2022-09-12T15:11:32;1.45;;;1.00;;
62121;SDS011;48108;47.532;19.084;2022-09-12T15:14:35;1.20;;;1.10;;
62121;SDS011;48108;47.532;19.084;2022-09-12T15:17:37;2.37;;;1.02;;
62121;SDS011;48108;47.532;19.084;2022-09-12T15:20:41;1.12;;;1.00;;
62121;SDS011;48108;47.532;19.084;2022-09-12T15:23:46;0.80;;;0.80;;
62121;SDS011;48108;47.532;19.084;2022-09-12T15:26:50;1.60;;;1.17;;
62121;SDS011;48108;47.532;19.084;2022-09-12T15:29:54;0.80;;;0.70;;
62121;SDS011;48108;47.532;19.084;2022-09-12T15:32:57;2.08;;;1.27;;
62121;SDS011;48108;47.532;19.084;2022-09-12T15:36:01;2.45;;;1.00;;
62121;SDS011;48108;47.532;19.084;2022-09-12T15:39:04;2.55;;;1.00;;
62121;SDS011;48108;47.532;19.084;2022-09-12T15:42:08;1.25;;;1.10;;
62121;SDS011;48108;47.532;19.084;2022-09-12T15:45:14;0.90;;;0.90;;
62121;SDS011;48108;47.532;19.084;2022-09-12T15:48:21;2.45;;;0.93;;
62121;SDS011;48108;47.532;19.084;2022-09-12T15:51:32;1.30;;;1.02;;
62121;SDS011;48108;47.532;19.084;2022-09-12T15:54:34;1.05;;;1.02;;
62121;SDS011;48108;47.532;19.084;2022-09-12T15:57:37;1.10;;;1.00;;
